ESNN/SDL METAR and TAF weather

Enter ICAO airport designator
Station Type Date Time Source
ESNN METAR 2021/09/20 04:20 UTC NOAA

ESNN 200420Z AUTO 33004KT 9999 OVC040/// 06/04 Q1029 RESHUP


Station Type Date Time Source
ESNN Decoded METAR 2021/09/20 04:20 UTC NOAA

Sundsvall-Harnosand Flygplats, Sweden (ESNN) 62-32N 017-27E 10M
Sep 20, 2021 - 12:20 AM EDT / 2021.09.20 0420 UTC
Wind: from the NNW (330 degrees) at 5 MPH (4 KT):0
Visibility: greater than 7 mile(s):0
Sky conditions: overcast
Temperature: 42 F (6 C)
Dew Point: 39 F (4 C)
Relative Humidity: 86%
Pressure (altimeter): 30.39 in. Hg (1029 hPa)
ob: ESNN 200420Z AUTO 33004KT 9999 OVC040/// 06/04 Q1029 RESHUP
cycle: 4

Station Type Date Time Source
ESNN TAF 2016/05/29 09:33 UTC NOAA

TAF TAF ESNN 290830Z 2909/3018 07006KT 9999 SCT045
BECMG 2913/2915 14010KT

Example: see airport list